ハリファックス の空港の天気 - METARとTAF

ハリファックス国際空港 ( CYHZ / YHZ ) - カナダ ノバスコシア州ハリファックス
飛行場実況気象(Metar)
観測時間05/28 00:00 ADT (05/28 03:00 UTC)
風向・風速南南西 4m/s
視程10km以上
天気現象
なし
気温17℃
湿度83%
気圧1022.4hPa
METARCYHZ 280300Z 21007KT 15SM SKC 17/14 A3019 RMK SLP224 DENSITY ALT 500FT
過去の天気等 Google飛行場航空写真 Wunderground天気予報

過去48時間のMETAR

飛行場予報(TAF)
発表時間: 5/28 00:05 ADT (5/28 03:05 UTC)
予報対象時間: 28日0時 ADT ~ 28日21時 ADT
風向・風速不定 2m/s
視程10km以上
なし
28日2時 ADT から
風向・風速不定 2m/s
視程10km以上
全天の4割程度の雲 雲底高度 60m
28日4時 ADT から 確率 30% で
視程3220m
天気現象もや
全天の8割程度の雲 雲底高度 60m
28日10時 ADT から
風向・風速南西 5m/s
視程10km以上
全天の8割程度の雲 雲底高度 7620m
28日12時 ADT ~ 28日14時 ADT に徐々に
風向・風速南西 6m/s 瞬間風速 11m/s
28日19時 ADT ~ 28日21時 ADT に徐々に
風向・風速南西 4m/s
TAF CYHZ 280305Z 2803/2824 VRB03KT P6SM SKC
FM280500 VRB03KT P6SM SCT002
PROB30 2807/2810 2SM BR BKN002
FM281300 22010KT P6SM BKN250
BECMG 2815/2817 22012G22KT
BECMG 2822/2824 22008KT RMK NXT FCST BY 280600Z